sensor_id;sensor_type;location;lat;lon;timestamp;temperature;humidity
2062;DHT22;11070;51.336;12.340;2023-05-18T00:01:47;8.30;99.90
2062;DHT22;11070;51.336;12.340;2023-05-18T00:04:12;8.20;99.90
2062;DHT22;11070;51.336;12.340;2023-05-18T00:06:38;8.10;99.90
2062;DHT22;11070;51.336;12.340;2023-05-18T00:09:04;8.10;99.90
2062;DHT22;11070;51.336;12.340;2023-05-18T00:11:30;8.00;99.90
2062;DHT22;11070;51.336;12.340;2023-05-18T00:13:56;8.00;99.90
2062;DHT22;11070;51.336;12.340;2023-05-18T00:16:22;7.80;99.90
2062;DHT22;11070;51.336;12.340;2023-05-18T00:18:48;7.80;99.90
2062;DHT22;11070;51.336;12.340;2023-05-18T00:21:13;7.80;99.90
2062;DHT22;11070;51.336;12.340;2023-05-18T00:23:40;7.80;99.90
2062;DHT22;11070;51.336;12.340;2023-05-18T00:26:07;7.70;99.90
2062;DHT22;11070;51.336;12.340;2023-05-18T00:28:33;7.70;99.90
2062;DHT22;11070;51.336;12.340;2023-05-18T00:30:58;7.70;99.90
2062;DHT22;11070;51.336;12.340;2023-05-18T00:33:24;7.70;99.90
2062;DHT22;11070;51.336;12.340;2023-05-18T00:35:50;7.60;99.90
2062;DHT22;11070;51.336;12.340;2023-05-18T00:38:16;7.50;99.90
2062;DHT22;11070;51.336;12.340;2023-05-18T00:40:42;7.50;99.90
2062;DHT22;11070;51.336;12.340;2023-05-18T00:43:08;7.50;99.90
2062;DHT22;11070;51.336;12.340;2023-05-18T00:45:34;7.40;99.90
2062;DHT22;11070;51.336;12.340;2023-05-18T00:48:00;7.40;99.90
2062;DHT22;11070;51.336;12.340;2023-05-18T00:50:25;7.40;99.90
2062;DHT22;11070;51.336;12.340;2023-05-18T00:52:52;7.40;99.90
2062;DHT22;11070;51.336;12.340;2023-05-18T00:55:17;7.30;99.90
2062;DHT22;11070;51.336;12.340;2023-05-18T00:57:43;7.30;99.90
2062;DHT22;11070;51.336;12.340;2023-05-18T01:00:12;7.30;99.90
2062;DHT22;11070;51.336;12.340;2023-05-18T01:02:39;7.30;99.90
2062;DHT22;11070;51.336;12.340;2023-05-18T01:05:10;7.20;99.90
2062;DHT22;11070;51.336;12.340;2023-05-18T01:07:37;7.20;99.90
2062;DHT22;11070;51.336;12.340;2023-05-18T01:10:04;7.20;99.90
2062;DHT22;11070;51.336;12.340;2023-05-18T01:12:49;7.20;99.90
2062;DHT22;11070;51.336;12.340;2023-05-18T01:15:22;7.20;99.90
2062;DHT22;11070;51.336;12.340;2023-05-18T01:18:00;7.20;99.90
2062;DHT22;11070;51.336;12.340;2023-05-18T01:20:46;7.20;99.90
2062;DHT22;11070;51.336;12.340;2023-05-18T01:26:14;7.10;99.90
2062;DHT22;11070;51.336;12.340;2023-05-18T01:28:43;7.10;99.90
2062;DHT22;11070;51.336;12.340;2023-05-18T01:31:11;7.00;99.90
2062;DHT22;11070;51.336;12.340;2023-05-18T01:33:37;7.00;99.90
2062;DHT22;11070;51.336;12.340;2023-05-18T01:36:02;7.00;99.90
2062;DHT22;11070;51.336;12.340;2023-05-18T01:38:28;7.00;99.90
2062;DHT22;11070;51.336;12.340;2023-05-18T01:41:17;7.00;99.90
2062;DHT22;11070;51.336;12.340;2023-05-18T01:44:07;6.90;99.90
2062;DHT22;11070;51.336;12.340;2023-05-18T01:49:21;6.90;99.90
2062;DHT22;11070;51.336;12.340;2023-05-18T01:51:49;6.90;99.90
2062;DHT22;11070;51.336;12.340;2023-05-18T01:54:17;6.90;99.90
2062;DHT22;11070;51.336;12.340;2023-05-18T01:56:46;6.80;99.90
2062;DHT22;11070;51.336;12.340;2023-05-18T01:59:13;6.70;99.90
2062;DHT22;11070;51.336;12.340;2023-05-18T02:01:40;6.70;99.90
2062;DHT22;11070;51.336;12.340;2023-05-18T02:04:09;6.70;99.90
2062;DHT22;11070;51.336;12.340;2023-05-18T02:06:35;6.60;99.90
2062;DHT22;11070;51.336;12.340;2023-05-18T02:09:04;6.60;99.90
2062;DHT22;11070;51.336;12.340;2023-05-18T02:11:30;6.60;99.90
2062;DHT22;11070;51.336;12.340;2023-05-18T02:13:55;6.50;99.90
2062;DHT22;11070;51.336;12.340;2023-05-18T02:16:21;6.40;99.90
2062;DHT22;11070;51.336;12.340;2023-05-18T02:18:47;6.40;99.90
2062;DHT22;11070;51.336;12.340;2023-05-18T02:21:13;6.40;99.90
2062;DHT22;11070;51.336;12.340;2023-05-18T02:23:39;6.40;99.90
2062;DHT22;11070;51.336;12.340;2023-05-18T02:26:05;6.30;99.90
2062;DHT22;11070;51.336;12.340;2023-05-18T02:28:31;6.40;99.90
2062;DHT22;11070;51.336;12.340;2023-05-18T02:31:07;6.30;99.90
2062;DHT22;11070;51.336;12.340;2023-05-18T02:33:33;6.30;99.90
2062;DHT22;11070;51.336;12.340;2023-05-18T02:36:00;6.20;99.90
2062;DHT22;11070;51.336;12.340;2023-05-18T02:38:27;6.20;99.90
2062;DHT22;11070;51.336;12.340;2023-05-18T02:40:53;6.20;99.90
2062;DHT22;11070;51.336;12.340;2023-05-18T02:43:19;6.20;99.90
2062;DHT22;11070;51.336;12.340;2023-05-18T02:45:47;6.10;99.90
2062;DHT22;11070;51.336;12.340;2023-05-18T02:48:13;6.20;99.90
2062;DHT22;11070;51.336;12.340;2023-05-18T02:50:38;6.10;99.90
2062;DHT22;11070;51.336;12.340;2023-05-18T02:53:04;6.10;99.90
2062;DHT22;11070;51.336;12.340;2023-05-18T02:55:30;6.10;99.90
2062;DHT22;11070;51.336;12.340;2023-05-18T02:57:56;6.10;99.90
2062;DHT22;11070;51.336;12.340;2023-05-18T03:02:48;6.00;99.90
2062;DHT22;11070;51.336;12.340;2023-05-18T03:05:15;6.00;99.90
2062;DHT22;11070;51.336;12.340;2023-05-18T03:07:51;6.00;99.90
2062;DHT22;11070;51.336;12.340;2023-05-18T03:10:18;5.90;99.90
2062;DHT22;11070;51.336;12.340;2023-05-18T03:12:44;5.90;99.90
2062;DHT22;11070;51.336;12.340;2023-05-18T03:15:10;5.90;99.90
2062;DHT22;11070;51.336;12.340;2023-05-18T03:17:38;5.90;99.90
2062;DHT22;11070;51.336;12.340;2023-05-18T03:20:06;5.90;99.90
2062;DHT22;11070;51.336;12.340;2023-05-18T03:22:32;5.80;99.90
2062;DHT22;11070;51.336;12.340;2023-05-18T03:24:58;5.80;99.90
2062;DHT22;11070;51.336;12.340;2023-05-18T03:27:23;5.90;99.90
2062;DHT22;11070;51.336;12.340;2023-05-18T03:29:51;5.80;99.90
2062;DHT22;11070;51.336;12.340;2023-05-18T03:32:21;5.80;99.90
2062;DHT22;11070;51.336;12.340;2023-05-18T03:34:49;5.90;99.90
2062;DHT22;11070;51.336;12.340;2023-05-18T03:37:16;5.90;99.90
2062;DHT22;11070;51.336;12.340;2023-05-18T03:39:42;5.90;99.90
2062;DHT22;11070;51.336;12.340;2023-05-18T03:42:08;5.90;99.90
2062;DHT22;11070;51.336;12.340;2023-05-18T03:44:33;5.90;99.90
2062;DHT22;11070;51.336;12.340;2023-05-18T03:46:59;5.90;99.90
2062;DHT22;11070;51.336;12.340;2023-05-18T03:49:25;5.90;99.90
2062;DHT22;11070;51.336;12.340;2023-05-18T03:51:50;5.90;99.90
2062;DHT22;11070;51.336;12.340;2023-05-18T03:54:19;6.00;99.90
2062;DHT22;11070;51.336;12.340;2023-05-18T03:56:45;6.00;99.90
2062;DHT22;11070;51.336;12.340;2023-05-18T03:59:11;6.00;99.90
2062;DHT22;11070;51.336;12.340;2023-05-18T04:01:37;6.10;99.90
2062;DHT22;11070;51.336;12.340;2023-05-18T04:04:07;6.10;99.90
2062;DHT22;11070;51.336;12.340;2023-05-18T04:06:33;6.20;99.90
2062;DHT22;11070;51.336;12.340;2023-05-18T04:09:00;6.30;99.90
2062;DHT22;11070;51.336;12.340;2023-05-18T04:11:29;6.30;99.90
2062;DHT22;11070;51.336;12.340;2023-05-18T04:13:56;6.30;99.90
2062;DHT22;11070;51.336;12.340;2023-05-18T04:16:23;6.50;99.90
2062;DHT22;11070;51.336;12.340;2023-05-18T04:18:48;6.50;99.90
2062;DHT22;11070;51.336;12.340;2023-05-18T04:21:14;6.50;99.90
2062;DHT22;11070;51.336;12.340;2023-05-18T04:23:40;6.60;99.90
2062;DHT22;11070;51.336;12.340;2023-05-18T04:26:07;6.60;99.90
2062;DHT22;11070;51.336;12.340;2023-05-18T04:28:33;6.70;99.90
2062;DHT22;11070;51.336;12.340;2023-05-18T04:30:59;6.80;99.90
2062;DHT22;11070;51.336;12.340;2023-05-18T04:33:27;6.80;99.90
2062;DHT22;11070;51.336;12.340;2023-05-18T04:35:53;6.90;99.90
2062;DHT22;11070;51.336;12.340;2023-05-18T04:38:23;7.00;99.90
2062;DHT22;11070;51.336;12.340;2023-05-18T04:40:50;7.10;99.90
2062;DHT22;11070;51.336;12.340;2023-05-18T04:43:16;7.20;99.90
2062;DHT22;11070;51.336;12.340;2023-05-18T04:45:43;7.30;99.90
2062;DHT22;11070;51.336;12.340;2023-05-18T04:48:15;7.40;99.90
2062;DHT22;11070;51.336;12.340;2023-05-18T04:50:43;7.50;99.90
2062;DHT22;11070;51.336;12.340;2023-05-18T04:53:09;7.60;99.90
2062;DHT22;11070;51.336;12.340;2023-05-18T04:55:37;7.60;99.90
2062;DHT22;11070;51.336;12.340;2023-05-18T04:58:02;7.70;99.90
2062;DHT22;11070;51.336;12.340;2023-05-18T05:00:29;7.70;99.90
2062;DHT22;11070;51.336;12.340;2023-05-18T05:02:56;7.80;99.90
2062;DHT22;11070;51.336;12.340;2023-05-18T05:05:23;7.90;99.90
2062;DHT22;11070;51.336;12.340;2023-05-18T05:07:50;8.00;99.90
2062;DHT22;11070;51.336;12.340;2023-05-18T05:10:18;8.00;99.90
2062;DHT22;11070;51.336;12.340;2023-05-18T05:12:44;8.00;99.90
2062;DHT22;11070;51.336;12.340;2023-05-18T05:15:10;8.10;99.90
2062;DHT22;11070;51.336;12.340;2023-05-18T05:17:36;8.30;99.90
2062;DHT22;11070;51.336;12.340;2023-05-18T05:20:02;8.30;99.90
2062;DHT22;11070;51.336;12.340;2023-05-18T05:22:28;8.40;99.90
2062;DHT22;11070;51.336;12.340;2023-05-18T05:24:53;8.50;99.90
2062;DHT22;11070;51.336;12.340;2023-05-18T05:27:19;8.60;99.90
2062;DHT22;11070;51.336;12.340;2023-05-18T05:29:45;8.80;99.90
2062;DHT22;11070;51.336;12.340;2023-05-18T05:32:11;9.00;99.90
2062;DHT22;11070;51.336;12.340;2023-05-18T05:34:38;9.10;99.90
2062;DHT22;11070;51.336;12.340;2023-05-18T05:37:04;9.20;99.90
2062;DHT22;11070;51.336;12.340;2023-05-18T05:39:30;9.30;99.90
2062;DHT22;11070;51.336;12.340;2023-05-18T05:41:56;9.40;99.90
2062;DHT22;11070;51.336;12.340;2023-05-18T05:44:21;9.40;99.90
2062;DHT22;11070;51.336;12.340;2023-05-18T05:46:47;9.50;99.90
2062;DHT22;11070;51.336;12.340;2023-05-18T05:49:13;9.50;99.90
2062;DHT22;11070;51.336;12.340;2023-05-18T05:51:38;9.60;99.90
2062;DHT22;11070;51.336;12.340;2023-05-18T05:54:04;9.70;99.90
2062;DHT22;11070;51.336;12.340;2023-05-18T05:56:30;9.80;99.90
2062;DHT22;11070;51.336;12.340;2023-05-18T05:58:55;9.80;99.90
2062;DHT22;11070;51.336;12.340;2023-05-18T06:01:21;9.90;99.90
2062;DHT22;11070;51.336;12.340;2023-05-18T06:03:47;10.00;99.90
2062;DHT22;11070;51.336;12.340;2023-05-18T06:06:13;10.10;99.90
2062;DHT22;11070;51.336;12.340;2023-05-18T06:08:39;10.30;99.90
2062;DHT22;11070;51.336;12.340;2023-05-18T06:11:05;10.40;99.90
2062;DHT22;11070;51.336;12.340;2023-05-18T06:13:31;10.50;99.90
2062;DHT22;11070;51.336;12.340;2023-05-18T06:15:57;10.70;99.90
2062;DHT22;11070;51.336;12.340;2023-05-18T06:18:22;10.90;99.90
2062;DHT22;11070;51.336;12.340;2023-05-18T06:20:48;11.00;99.90
2062;DHT22;11070;51.336;12.340;2023-05-18T06:23:14;11.20;99.90
2062;DHT22;11070;51.336;12.340;2023-05-18T06:25:39;11.30;99.90
2062;DHT22;11070;51.336;12.340;2023-05-18T06:28:05;11.50;99.90
2062;DHT22;11070;51.336;12.340;2023-05-18T06:30:31;11.60;99.90
2062;DHT22;11070;51.336;12.340;2023-05-18T06:32:59;11.80;99.90
2062;DHT22;11070;51.336;12.340;2023-05-18T06:35:25;12.00;99.90
2062;DHT22;11070;51.336;12.340;2023-05-18T06:37:51;12.00;99.90
2062;DHT22;11070;51.336;12.340;2023-05-18T06:40:17;12.10;99.90
2062;DHT22;11070;51.336;12.340;2023-05-18T06:42:42;12.10;99.90
2062;DHT22;11070;51.336;12.340;2023-05-18T06:45:08;12.20;99.90
2062;DHT22;11070;51.336;12.340;2023-05-18T06:47:34;12.40;99.90
2062;DHT22;11070;51.336;12.340;2023-05-18T06:50:00;12.50;99.90
2062;DHT22;11070;51.336;12.340;2023-05-18T06:52:25;12.60;99.90
2062;DHT22;11070;51.336;12.340;2023-05-18T06:54:51;12.60;99.90
2062;DHT22;11070;51.336;12.340;2023-05-18T06:57:17;12.70;99.90
2062;DHT22;11070;51.336;12.340;2023-05-18T06:59:42;12.80;99.90
2062;DHT22;11070;51.336;12.340;2023-05-18T07:02:08;12.90;99.90
2062;DHT22;11070;51.336;12.340;2023-05-18T07:04:34;13.10;99.90
2062;DHT22;11070;51.336;12.340;2023-05-18T07:06:59;13.30;99.90
2062;DHT22;11070;51.336;12.340;2023-05-18T07:09:25;13.50;99.90
2062;DHT22;11070;51.336;12.340;2023-05-18T07:11:51;13.60;99.90
2062;DHT22;11070;51.336;12.340;2023-05-18T07:14:17;14.00;99.90
2062;DHT22;11070;51.336;12.340;2023-05-18T07:16:42;13.90;99.90
2062;DHT22;11070;51.336;12.340;2023-05-18T07:19:12;13.80;99.90
2062;DHT22;11070;51.336;12.340;2023-05-18T07:21:38;13.70;99.90
2062;DHT22;11070;51.336;12.340;2023-05-18T07:24:04;13.80;99.90
2062;DHT22;11070;51.336;12.340;2023-05-18T07:26:30;13.80;99.90
2062;DHT22;11070;51.336;12.340;2023-05-18T07:28:56;14.20;99.90
2062;DHT22;11070;51.336;12.340;2023-05-18T07:31:22;14.50;99.90
2062;DHT22;11070;51.336;12.340;2023-05-18T07:33:48;14.60;98.50
2062;DHT22;11070;51.336;12.340;2023-05-18T07:36:14;14.90;96.50
2062;DHT22;11070;51.336;12.340;2023-05-18T07:38:39;15.10;95.00
2062;DHT22;11070;51.336;12.340;2023-05-18T07:41:05;15.10;96.10
2062;DHT22;11070;51.336;12.340;2023-05-18T07:43:31;15.40;95.40
2062;DHT22;11070;51.336;12.340;2023-05-18T07:45:57;15.60;93.10
2062;DHT22;11070;51.336;12.340;2023-05-18T07:48:22;15.70;92.50
2062;DHT22;11070;51.336;12.340;2023-05-18T07:50:48;15.80;92.70
2062;DHT22;11070;51.336;12.340;2023-05-18T07:53:14;16.00;91.60
2062;DHT22;11070;51.336;12.340;2023-05-18T07:55:39;16.00;90.50
2062;DHT22;11070;51.336;12.340;2023-05-18T07:58:06;15.80;85.30
2062;DHT22;11070;51.336;12.340;2023-05-18T08:00:32;15.70;85.60
2062;DHT22;11070;51.336;12.340;2023-05-18T08:02:58;15.60;87.10
2062;DHT22;11070;51.336;12.340;2023-05-18T08:05:25;16.00;84.60
2062;DHT22;11070;51.336;12.340;2023-05-18T08:07:51;16.40;83.70
2062;DHT22;11070;51.336;12.340;2023-05-18T08:10:17;16.50;78.10
2062;DHT22;11070;51.336;12.340;2023-05-18T08:12:43;16.50;79.50
2062;DHT22;11070;51.336;12.340;2023-05-18T08:15:09;16.80;80.10
2062;DHT22;11070;51.336;12.340;2023-05-18T08:17:35;17.10;74.90
2062;DHT22;11070;51.336;12.340;2023-05-18T08:20:01;17.50;73.60
2062;DHT22;11070;51.336;12.340;2023-05-18T08:22:29;17.60;72.20
2062;DHT22;11070;51.336;12.340;2023-05-18T08:24:55;17.30;73.10
2062;DHT22;11070;51.336;12.340;2023-05-18T08:27:22;16.90;73.40
2062;DHT22;11070;51.336;12.340;2023-05-18T08:29:48;16.80;73.40
2062;DHT22;11070;51.336;12.340;2023-05-18T08:32:13;17.00;73.00
2062;DHT22;11070;51.336;12.340;2023-05-18T08:34:40;17.20;72.20
2062;DHT22;11070;51.336;12.340;2023-05-18T08:37:06;17.70;70.70
2062;DHT22;11070;51.336;12.340;2023-05-18T08:39:32;17.80;69.10
2062;DHT22;11070;51.336;12.340;2023-05-18T08:42:21;18.00;68.10
2062;DHT22;11070;51.336;12.340;2023-05-18T08:47:40;17.90;65.60
2062;DHT22;11070;51.336;12.340;2023-05-18T08:50:07;18.10;65.50
2062;DHT22;11070;51.336;12.340;2023-05-18T08:52:41;18.60;64.30
2062;DHT22;11070;51.336;12.340;2023-05-18T08:55:08;18.60;63.40
2062;DHT22;11070;51.336;12.340;2023-05-18T08:57:38;18.70;61.30
2062;DHT22;11070;51.336;12.340;2023-05-18T09:00:04;19.00;60.50
2062;DHT22;11070;51.336;12.340;2023-05-18T09:02:32;19.50;59.30
2062;DHT22;11070;51.336;12.340;2023-05-18T09:04:58;20.30;58.20
2062;DHT22;11070;51.336;12.340;2023-05-18T09:07:26;20.40;56.00
2062;DHT22;11070;51.336;12.340;2023-05-18T09:09:54;19.80;55.30
2062;DHT22;11070;51.336;12.340;2023-05-18T09:12:21;19.60;56.40
2062;DHT22;11070;51.336;12.340;2023-05-18T09:14:47;20.10;55.60
2062;DHT22;11070;51.336;12.340;2023-05-18T09:17:13;19.80;55.40
2062;DHT22;11070;51.336;12.340;2023-05-18T09:19:39;19.30;56.10
2062;DHT22;11070;51.336;12.340;2023-05-18T09:22:05;19.20;57.00
2062;DHT22;11070;51.336;12.340;2023-05-18T09:24:32;19.70;56.40
2062;DHT22;11070;51.336;12.340;2023-05-18T09:26:58;19.50;55.80
2062;DHT22;11070;51.336;12.340;2023-05-18T09:29:24;19.30;57.00
2062;DHT22;11070;51.336;12.340;2023-05-18T09:31:50;19.50;56.40
2062;DHT22;11070;51.336;12.340;2023-05-18T09:34:17;19.60;57.00
2062;DHT22;11070;51.336;12.340;2023-05-18T09:36:48;19.50;56.50
2062;DHT22;11070;51.336;12.340;2023-05-18T09:39:14;19.70;55.60
2062;DHT22;11070;51.336;12.340;2023-05-18T09:41:40;19.80;54.90
2062;DHT22;11070;51.336;12.340;2023-05-18T09:44:07;19.80;54.70
2062;DHT22;11070;51.336;12.340;2023-05-18T09:46:38;19.60;55.00
2062;DHT22;11070;51.336;12.340;2023-05-18T09:49:05;19.80;54.90
2062;DHT22;11070;51.336;12.340;2023-05-18T09:51:37;20.00;54.50
2062;DHT22;11070;51.336;12.340;2023-05-18T09:54:06;20.20;54.30
2062;DHT22;11070;51.336;12.340;2023-05-18T09:56:36;20.30;53.50
2062;DHT22;11070;51.336;12.340;2023-05-18T09:59:10;20.50;53.50
2062;DHT22;11070;51.336;12.340;2023-05-18T10:01:36;20.30;53.30
2062;DHT22;11070;51.336;12.340;2023-05-18T10:04:03;19.60;53.40
2062;DHT22;11070;51.336;12.340;2023-05-18T10:06:30;20.00;54.10
2062;DHT22;11070;51.336;12.340;2023-05-18T10:08:56;20.70;53.60
2062;DHT22;11070;51.336;12.340;2023-05-18T10:11:23;21.40;52.30
2062;DHT22;11070;51.336;12.340;2023-05-18T10:13:53;21.20;52.50
2062;DHT22;11070;51.336;12.340;2023-05-18T10:16:22;21.00;53.00
2062;DHT22;11070;51.336;12.340;2023-05-18T10:18:48;21.40;52.40
2062;DHT22;11070;51.336;12.340;2023-05-18T10:21:17;21.60;51.10
2062;DHT22;11070;51.336;12.340;2023-05-18T10:23:44;21.20;50.80
2062;DHT22;11070;51.336;12.340;2023-05-18T10:26:13;21.10;50.80
2062;DHT22;11070;51.336;12.340;2023-05-18T10:28:44;21.20;51.80
2062;DHT22;11070;51.336;12.340;2023-05-18T10:31:12;22.00;51.30
2062;DHT22;11070;51.336;12.340;2023-05-18T10:33:40;21.80;50.00
2062;DHT22;11070;51.336;12.340;2023-05-18T10:36:08;21.60;49.90
2062;DHT22;11070;51.336;12.340;2023-05-18T10:38:36;21.90;50.00
2062;DHT22;11070;51.336;12.340;2023-05-18T10:41:07;22.30;48.50
2062;DHT22;11070;51.336;12.340;2023-05-18T10:43:35;22.60;48.60
2062;DHT22;11070;51.336;12.340;2023-05-18T10:46:01;22.10;48.90
2062;DHT22;11070;51.336;12.340;2023-05-18T10:48:28;21.70;49.80
2062;DHT22;11070;51.336;12.340;2023-05-18T10:50:55;21.70;49.70
2062;DHT22;11070;51.336;12.340;2023-05-18T10:53:23;21.70;49.80
2062;DHT22;11070;51.336;12.340;2023-05-18T10:55:50;21.80;50.00
2062;DHT22;11070;51.336;12.340;2023-05-18T10:58:18;21.50;49.10
2062;DHT22;11070;51.336;12.340;2023-05-18T11:00:57;20.80;49.90
2062;DHT22;11070;51.336;12.340;2023-05-18T11:03:24;20.70;50.20
2062;DHT22;11070;51.336;12.340;2023-05-18T11:08:28;20.70;49.30
2062;DHT22;11070;51.336;12.340;2023-05-18T11:11:02;20.80;50.20
2062;DHT22;11070;51.336;12.340;2023-05-18T11:13:30;20.80;49.40
2062;DHT22;11070;51.336;12.340;2023-05-18T11:26:48;21.40;48.70
2062;DHT22;11070;51.336;12.340;2023-05-18T11:30:02;21.10;49.00
2062;DHT22;11070;51.336;12.340;2023-05-18T11:32:04;21.40;49.30
2062;DHT22;11070;51.336;12.340;2023-05-18T11:34:49;21.90;48.00
2062;DHT22;11070;51.336;12.340;2023-05-18T11:40:46;22.90;46.40
2062;DHT22;11070;51.336;12.340;2023-05-18T11:43:22;23.80;46.00
2062;DHT22;11070;51.336;12.340;2023-05-18T11:45:56;24.60;44.40
2062;DHT22;11070;51.336;12.340;2023-05-18T11:48:22;24.80;43.10
2062;DHT22;11070;51.336;12.340;2023-05-18T11:50:51;24.70;42.60
2062;DHT22;11070;51.336;12.340;2023-05-18T11:53:17;24.70;43.50
2062;DHT22;11070;51.336;12.340;2023-05-18T11:55:43;24.50;43.70
2062;DHT22;11070;51.336;12.340;2023-05-18T11:58:10;24.20;43.90
2062;DHT22;11070;51.336;12.340;2023-05-18T12:00:37;24.00;44.10
2062;DHT22;11070;51.336;12.340;2023-05-18T12:03:04;23.30;44.60
2062;DHT22;11070;51.336;12.340;2023-05-18T12:05:30;22.60;44.70
2062;DHT22;11070;51.336;12.340;2023-05-18T12:07:57;22.30;45.00
2062;DHT22;11070;51.336;12.340;2023-05-18T12:10:23;22.30;45.40
2062;DHT22;11070;51.336;12.340;2023-05-18T12:12:51;22.50;45.10
2062;DHT22;11070;51.336;12.340;2023-05-18T12:15:21;22.40;44.40
2062;DHT22;11070;51.336;12.340;2023-05-18T12:17:48;22.40;45.20
2062;DHT22;11070;51.336;12.340;2023-05-18T12:20:19;22.20;45.50
2062;DHT22;11070;51.336;12.340;2023-05-18T12:22:47;22.50;45.40
2062;DHT22;11070;51.336;12.340;2023-05-18T12:25:25;22.80;45.50
2062;DHT22;11070;51.336;12.340;2023-05-18T12:27:53;23.10;45.30
2062;DHT22;11070;51.336;12.340;2023-05-18T12:30:21;23.00;45.00
2062;DHT22;11070;51.336;12.340;2023-05-18T12:32:55;22.70;45.10
2062;DHT22;11070;51.336;12.340;2023-05-18T12:35:28;22.50;45.10
2062;DHT22;11070;51.336;12.340;2023-05-18T12:37:55;22.50;45.20
2062;DHT22;11070;51.336;12.340;2023-05-18T12:40:22;22.60;45.50
2062;DHT22;11070;51.336;12.340;2023-05-18T12:42:57;22.90;45.80
2062;DHT22;11070;51.336;12.340;2023-05-18T12:45:31;22.70;45.40
2062;DHT22;11070;51.336;12.340;2023-05-18T12:48:07;21.90;45.90
2062;DHT22;11070;51.336;12.340;2023-05-18T12:50:33;21.70;45.80
2062;DHT22;11070;51.336;12.340;2023-05-18T12:52:59;21.70;46.10
2062;DHT22;11070;51.336;12.340;2023-05-18T12:55:26;21.80;45.60
2062;DHT22;11070;51.336;12.340;2023-05-18T12:58:02;21.40;46.10
2062;DHT22;11070;51.336;12.340;2023-05-18T13:00:35;21.10;46.90
2062;DHT22;11070;51.336;12.340;2023-05-18T13:03:09;21.00;47.00
2062;DHT22;11070;51.336;12.340;2023-05-18T13:05:35;21.30;47.30
2062;DHT22;11070;51.336;12.340;2023-05-18T13:08:01;21.10;46.90
2062;DHT22;11070;51.336;12.340;2023-05-18T13:10:31;21.20;47.00
2062;DHT22;11070;51.336;12.340;2023-05-18T13:12:58;21.30;47.00
2062;DHT22;11070;51.336;12.340;2023-05-18T13:15:35;21.10;46.90
2062;DHT22;11070;51.336;12.340;2023-05-18T13:18:06;20.70;47.40
2062;DHT22;11070;51.336;12.340;2023-05-18T13:20:40;20.30;47.90
2062;DHT22;11070;51.336;12.340;2023-05-18T13:23:11;20.60;48.90
2062;DHT22;11070;51.336;12.340;2023-05-18T13:25:38;21.60;48.90
2062;DHT22;11070;51.336;12.340;2023-05-18T13:28:04;22.20;47.20
2062;DHT22;11070;51.336;12.340;2023-05-18T13:30:31;21.80;45.70
2062;DHT22;11070;51.336;12.340;2023-05-18T13:33:00;21.40;46.60
2062;DHT22;11070;51.336;12.340;2023-05-18T13:35:26;21.90;46.30
2062;DHT22;11070;51.336;12.340;2023-05-18T13:37:51;22.70;46.20
2062;DHT22;11070;51.336;12.340;2023-05-18T13:40:19;23.20;45.20
2062;DHT22;11070;51.336;12.340;2023-05-18T13:42:45;22.80;44.90
2062;DHT22;11070;51.336;12.340;2023-05-18T13:45:12;22.90;45.40
2062;DHT22;11070;51.336;12.340;2023-05-18T13:47:39;23.30;45.80
2062;DHT22;11070;51.336;12.340;2023-05-18T13:50:09;22.90;44.50
2062;DHT22;11070;51.336;12.340;2023-05-18T13:52:35;22.40;45.10
2062;DHT22;11070;51.336;12.340;2023-05-18T13:55:05;22.20;45.90
2062;DHT22;11070;51.336;12.340;2023-05-18T13:57:31;22.30;45.60
2062;DHT22;11070;51.336;12.340;2023-05-18T13:59:57;22.40;45.60
2062;DHT22;11070;51.336;12.340;2023-05-18T14:02:24;22.70;45.70
2062;DHT22;11070;51.336;12.340;2023-05-18T14:04:51;22.50;45.30
2062;DHT22;11070;51.336;12.340;2023-05-18T14:07:17;21.70;46.30
2062;DHT22;11070;51.336;12.340;2023-05-18T14:09:43;21.40;47.10
2062;DHT22;11070;51.336;12.340;2023-05-18T14:12:09;21.10;47.50
2062;DHT22;11070;51.336;12.340;2023-05-18T14:14:35;20.90;47.60
2062;DHT22;11070;51.336;12.340;2023-05-18T14:17:01;20.70;47.90
2062;DHT22;11070;51.336;12.340;2023-05-18T14:19:27;20.80;47.90
2062;DHT22;11070;51.336;12.340;2023-05-18T14:21:53;20.90;47.80
2062;DHT22;11070;51.336;12.340;2023-05-18T14:24:19;20.60;47.90
2062;DHT22;11070;51.336;12.340;2023-05-18T14:26:44;20.10;48.50
2062;DHT22;11070;51.336;12.340;2023-05-18T14:29:10;19.60;48.80
2062;DHT22;11070;51.336;12.340;2023-05-18T14:31:36;19.60;49.10
2062;DHT22;11070;51.336;12.340;2023-05-18T14:34:02;20.00;49.00
2062;DHT22;11070;51.336;12.340;2023-05-18T14:36:27;20.50;48.60
2062;DHT22;11070;51.336;12.340;2023-05-18T14:38:53;20.80;48.80
2062;DHT22;11070;51.336;12.340;2023-05-18T14:41:19;20.80;48.10
2062;DHT22;11070;51.336;12.340;2023-05-18T14:43:46;20.50;48.40
2062;DHT22;11070;51.336;12.340;2023-05-18T14:46:12;20.10;48.60
2062;DHT22;11070;51.336;12.340;2023-05-18T14:48:37;19.90;49.00
2062;DHT22;11070;51.336;12.340;2023-05-18T14:51:03;20.00;49.40
2062;DHT22;11070;51.336;12.340;2023-05-18T14:53:29;20.10;49.40
2062;DHT22;11070;51.336;12.340;2023-05-18T14:55:54;20.20;49.30
2062;DHT22;11070;51.336;12.340;2023-05-18T14:58:21;20.10;47.90
2062;DHT22;11070;51.336;12.340;2023-05-18T15:00:47;20.40;48.30
2062;DHT22;11070;51.336;12.340;2023-05-18T15:03:12;20.70;47.90
2062;DHT22;11070;51.336;12.340;2023-05-18T15:05:38;21.00;48.10
2062;DHT22;11070;51.336;12.340;2023-05-18T15:08:04;21.20;47.30
2062;DHT22;11070;51.336;12.340;2023-05-18T15:10:30;21.40;47.30
2062;DHT22;11070;51.336;12.340;2023-05-18T15:12:55;21.30;47.40
2062;DHT22;11070;51.336;12.340;2023-05-18T15:15:21;21.00;47.60
2062;DHT22;11070;51.336;12.340;2023-05-18T15:17:47;20.80;48.70
2062;DHT22;11070;51.336;12.340;2023-05-18T15:20:13;20.60;48.80
2062;DHT22;11070;51.336;12.340;2023-05-18T15:22:39;20.20;48.80
2062;DHT22;11070;51.336;12.340;2023-05-18T15:25:06;19.80;49.40
2062;DHT22;11070;51.336;12.340;2023-05-18T15:27:36;19.70;49.50
2062;DHT22;11070;51.336;12.340;2023-05-18T15:30:03;19.60;49.10
2062;DHT22;11070;51.336;12.340;2023-05-18T15:32:38;19.50;49.80
2062;DHT22;11070;51.336;12.340;2023-05-18T15:35:05;19.50;49.80
2062;DHT22;11070;51.336;12.340;2023-05-18T15:37:31;19.50;50.10
2062;DHT22;11070;51.336;12.340;2023-05-18T15:39:57;19.50;49.60
2062;DHT22;11070;51.336;12.340;2023-05-18T15:42:23;19.80;49.90
2062;DHT22;11070;51.336;12.340;2023-05-18T15:44:49;19.80;50.00
2062;DHT22;11070;51.336;12.340;2023-05-18T15:47:14;19.70;50.00
2062;DHT22;11070;51.336;12.340;2023-05-18T15:49:40;19.70;49.80
2062;DHT22;11070;51.336;12.340;2023-05-18T15:52:06;19.60;50.00
2062;DHT22;11070;51.336;12.340;2023-05-18T15:54:32;19.40;50.10
2062;DHT22;11070;51.336;12.340;2023-05-18T15:56:59;19.20;50.50
2062;DHT22;11070;51.336;12.340;2023-05-18T15:59:25;18.90;51.00
2062;DHT22;11070;51.336;12.340;2023-05-18T16:01:51;18.70;51.70
2062;DHT22;11070;51.336;12.340;2023-05-18T16:04:17;18.60;52.30
2062;DHT22;11070;51.336;12.340;2023-05-18T16:06:43;18.60;52.40